sensor_id;sensor_type;location;lat;lon;timestamp;pressure;altitude;pressure_sealevel;temperature;humidity
68193;BME280;55012;47.562;18.414;2023-09-08T00:01:55;99694.09;;;20.47;100.00
68193;BME280;55012;47.562;18.414;2023-09-08T00:04:21;99715.25;;;20.61;100.00
68193;BME280;55012;47.562;18.414;2023-09-08T00:06:47;99724.66;;;20.64;100.00
68193;BME280;55012;47.562;18.414;2023-09-08T00:09:12;99725.47;;;20.57;100.00
68193;BME280;55012;47.562;18.414;2023-09-08T00:11:38;99719.97;;;20.57;100.00
68193;BME280;55012;47.562;18.414;2023-09-08T00:14:04;99719.16;;;20.60;100.00
68193;BME280;55012;47.562;18.414;2023-09-08T00:16:30;99720.72;;;20.65;100.00
68193;BME280;55012;47.562;18.414;2023-09-08T00:18:56;99727.00;;;20.65;100.00
68193;BME280;55012;47.562;18.414;2023-09-08T00:21:22;99719.16;;;20.64;100.00
68193;BME280;55012;47.562;18.414;2023-09-08T00:23:47;99718.00;;;20.61;100.00
68193;BME280;55012;47.562;18.414;2023-09-08T00:26:13;99719.59;;;20.55;100.00
68193;BME280;55012;47.562;18.414;2023-09-08T00:28:38;99700.34;;;20.52;100.00
68193;BME280;55012;47.562;18.414;2023-09-08T00:31:04;99707.41;;;20.56;100.00
68193;BME280;55012;47.562;18.414;2023-09-08T00:33:30;99712.91;;;20.56;100.00
68193;BME280;55012;47.562;18.414;2023-09-08T00:35:55;99708.97;;;20.57;100.00
68193;BME280;55012;47.562;18.414;2023-09-08T00:38:22;99710.53;;;20.58;100.00
68193;BME280;55012;47.562;18.414;2023-09-08T00:40:48;99709.00;;;20.54;100.00
68193;BME280;55012;47.562;18.414;2023-09-08T00:43:14;99705.06;;;20.51;100.00
68193;BME280;55012;47.562;18.414;2023-09-08T00:45:42;99696.81;;;20.51;100.00
68193;BME280;55012;47.562;18.414;2023-09-08T00:48:09;99693.69;;;20.53;100.00
68193;BME280;55012;47.562;18.414;2023-09-08T00:50:36;99690.56;;;20.51;100.00
68193;BME280;55012;47.562;18.414;2023-09-08T00:53:03;99692.88;;;20.56;100.00
68193;BME280;55012;47.562;18.414;2023-09-08T00:55:29;99690.53;;;20.54;100.00
68193;BME280;55012;47.562;18.414;2023-09-08T00:57:56;99690.56;;;20.51;100.00
68193;BME280;55012;47.562;18.414;2023-09-08T01:00:21;99681.53;;;20.50;100.00
68193;BME280;55012;47.562;18.414;2023-09-08T01:02:47;99692.88;;;20.56;100.00
68193;BME280;55012;47.562;18.414;2023-09-08T01:05:13;99689.34;;;20.55;100.00
68193;BME280;55012;47.562;18.414;2023-09-08T01:07:40;99693.66;;;20.56;100.00
68193;BME280;55012;47.562;18.414;2023-09-08T01:10:06;99690.94;;;20.53;100.00
68193;BME280;55012;47.562;18.414;2023-09-08T01:12:32;99679.97;;;20.49;100.00
68193;BME280;55012;47.562;18.414;2023-09-08T01:15:00;99677.63;;;20.47;100.00
68193;BME280;55012;47.562;18.414;2023-09-08T01:17:26;99679.19;;;20.48;100.00
68193;BME280;55012;47.562;18.414;2023-09-08T01:19:55;99678.38;;;20.52;100.00
68193;BME280;55012;47.562;18.414;2023-09-08T01:25:29;99676.06;;;20.46;100.00
68193;BME280;55012;47.562;18.414;2023-09-08T01:28:01;99677.25;;;20.45;100.00
68193;BME280;55012;47.562;18.414;2023-09-08T01:30:29;99677.66;;;20.44;100.00
68193;BME280;55012;47.562;18.414;2023-09-08T01:32:58;99679.59;;;20.40;100.00
68193;BME280;55012;47.562;18.414;2023-09-08T01:35:24;99668.22;;;20.38;100.00
68193;BME280;55012;47.562;18.414;2023-09-08T01:37:50;99675.66;;;20.41;100.00
68193;BME280;55012;47.562;18.414;2023-09-08T01:40:16;99670.53;;;20.43;100.00
68193;BME280;55012;47.562;18.414;2023-09-08T01:42:41;99674.50;;;20.45;100.00
68193;BME280;55012;47.562;18.414;2023-09-08T01:45:08;99672.13;;;20.47;100.00
68193;BME280;55012;47.562;18.414;2023-09-08T01:47:34;99672.91;;;20.48;100.00
68193;BME280;55012;47.562;18.414;2023-09-08T01:49:59;99668.97;;;20.49;100.00
68193;BME280;55012;47.562;18.414;2023-09-08T01:52:25;99672.50;;;20.50;100.00
68193;BME280;55012;47.562;18.414;2023-09-08T01:54:51;99661.53;;;20.46;100.00
68193;BME280;55012;47.562;18.414;2023-09-08T01:57:17;99666.22;;;20.42;100.00
68193;BME280;55012;47.562;18.414;2023-09-08T01:59:42;99659.97;;;20.38;100.00
68193;BME280;55012;47.562;18.414;2023-09-08T02:02:10;99652.13;;;20.33;100.00
68193;BME280;55012;47.562;18.414;2023-09-08T02:04:35;99650.59;;;20.32;100.00
68193;BME280;55012;47.562;18.414;2023-09-08T02:07:01;99658.44;;;20.26;100.00
68193;BME280;55012;47.562;18.414;2023-09-08T02:09:45;99649.84;;;20.20;100.00
68193;BME280;55012;47.562;18.414;2023-09-08T02:12:10;99649.03;;;20.31;100.00
68193;BME280;55012;47.562;18.414;2023-09-08T02:14:35;99661.19;;;20.30;100.00
68193;BME280;55012;47.562;18.414;2023-09-08T02:17:01;99656.88;;;20.25;100.00
68193;BME280;55012;47.562;18.414;2023-09-08T02:19:27;99642.81;;;20.19;100.00
68193;BME280;55012;47.562;18.414;2023-09-08T02:21:53;99645.16;;;20.17;100.00
68193;BME280;55012;47.562;18.414;2023-09-08T02:24:18;99649.47;;;20.22;100.00
68193;BME280;55012;47.562;18.414;2023-09-08T02:26:43;99649.84;;;20.24;100.00
68193;BME280;55012;47.562;18.414;2023-09-08T02:29:09;99643.59;;;20.16;100.00
68193;BME280;55012;47.562;18.414;2023-09-08T02:31:34;99639.34;;;20.05;100.00
68193;BME280;55012;47.562;18.414;2023-09-08T02:34:00;99638.13;;;20.13;100.00
68193;BME280;55012;47.562;18.414;2023-09-08T02:36:25;99651.00;;;20.27;100.00
68193;BME280;55012;47.562;18.414;2023-09-08T02:38:55;99650.25;;;20.19;100.00
68193;BME280;55012;47.562;18.414;2023-09-08T02:41:22;99658.06;;;20.24;100.00
68193;BME280;55012;47.562;18.414;2023-09-08T02:43:48;99660.03;;;20.24;100.00
68193;BME280;55012;47.562;18.414;2023-09-08T02:46:13;99652.19;;;20.22;100.00
68193;BME280;55012;47.562;18.414;2023-09-08T02:48:39;99650.25;;;20.15;100.00
68193;BME280;55012;47.562;18.414;2023-09-08T02:51:05;99641.66;;;20.10;100.00
68193;BME280;55012;47.562;18.414;2023-09-08T02:53:30;99637.38;;;20.05;100.00
68193;BME280;55012;47.562;18.414;2023-09-08T02:55:57;99638.94;;;20.03;100.00
68193;BME280;55012;47.562;18.414;2023-09-08T02:58:23;99638.16;;;20.02;100.00
68193;BME280;55012;47.562;18.414;2023-09-08T03:00:48;99640.09;;;20.05;100.00
68193;BME280;55012;47.562;18.414;2023-09-08T03:03:14;99635.81;;;20.04;100.00
68193;BME280;55012;47.562;18.414;2023-09-08T03:05:39;99635.81;;;20.01;100.00
68193;BME280;55012;47.562;18.414;2023-09-08T03:08:05;99634.63;;;20.05;100.00
68193;BME280;55012;47.562;18.414;2023-09-08T03:10:31;99637.78;;;20.04;100.00
68193;BME280;55012;47.562;18.414;2023-09-08T03:13:02;99638.56;;;20.04;100.00
68193;BME280;55012;47.562;18.414;2023-09-08T03:15:28;99638.16;;;20.02;100.00
68193;BME280;55012;47.562;18.414;2023-09-08T03:17:54;99631.91;;;19.98;100.00
68193;BME280;55012;47.562;18.414;2023-09-08T03:20:20;99633.50;;;19.88;100.00
68193;BME280;55012;47.562;18.414;2023-09-08T03:22:45;99629.22;;;19.80;100.00
68193;BME280;55012;47.562;18.414;2023-09-08T03:25:13;99628.09;;;19.56;100.00
68193;BME280;55012;47.562;18.414;2023-09-08T03:27:39;99617.91;;;19.35;100.00
68193;BME280;55012;47.562;18.414;2023-09-08T03:30:05;99607.75;;;19.11;100.00
68193;BME280;55012;47.562;18.414;2023-09-08T03:32:30;99591.69;;;18.77;100.00
68193;BME280;55012;47.562;18.414;2023-09-08T03:34:56;99563.47;;;18.45;100.00
68193;BME280;55012;47.562;18.414;2023-09-08T03:37:21;99547.00;;;18.23;100.00
68193;BME280;55012;47.562;18.414;2023-09-08T03:39:47;99522.75;;;18.25;100.00
68193;BME280;55012;47.562;18.414;2023-09-08T03:42:13;99515.75;;;18.46;100.00
68193;BME280;55012;47.562;18.414;2023-09-08T03:44:38;99523.97;;;18.57;100.00
68193;BME280;55012;47.562;18.414;2023-09-08T03:47:03;99532.22;;;18.71;100.00
68193;BME280;55012;47.562;18.414;2023-09-08T03:49:30;99525.94;;;18.74;100.00
68193;BME280;55012;47.562;18.414;2023-09-08T03:51:56;99539.63;;;18.92;100.00
68193;BME280;55012;47.562;18.414;2023-09-08T03:54:21;99543.53;;;18.98;100.00
68193;BME280;55012;47.562;18.414;2023-09-08T03:56:46;99548.59;;;19.03;100.00
68193;BME280;55012;47.562;18.414;2023-09-08T03:59:12;99554.50;;;19.01;100.00
68193;BME280;55012;47.562;18.414;2023-09-08T04:01:37;99548.22;;;19.08;100.00
68193;BME280;55012;47.562;18.414;2023-09-08T04:04:03;99563.84;;;19.32;100.00
68193;BME280;55012;47.562;18.414;2023-09-08T04:06:28;99581.47;;;19.46;100.00
68193;BME280;55012;47.562;18.414;2023-09-08T04:08:54;99589.66;;;19.49;100.00
68193;BME280;55012;47.562;18.414;2023-09-08T04:11:19;99588.50;;;19.50;100.00
68193;BME280;55012;47.562;18.414;2023-09-08T04:13:44;99576.75;;;19.53;100.00
68193;BME280;55012;47.562;18.414;2023-09-08T04:16:10;99587.31;;;19.58;100.00
68193;BME280;55012;47.562;18.414;2023-09-08T04:18:35;99593.16;;;19.68;100.00
68193;BME280;55012;47.562;18.414;2023-09-08T04:21:01;99591.97;;;19.76;100.00
68193;BME280;55012;47.562;18.414;2023-09-08T04:23:26;99602.16;;;19.82;100.00
68193;BME280;55012;47.562;18.414;2023-09-08T04:25:51;99610.38;;;19.86;100.00
68193;BME280;55012;47.562;18.414;2023-09-08T04:28:17;99617.81;;;19.85;100.00
68193;BME280;55012;47.562;18.414;2023-09-08T04:30:42;99617.44;;;19.83;100.00
68193;BME280;55012;47.562;18.414;2023-09-08T04:33:08;99615.03;;;19.92;100.00
68193;BME280;55012;47.562;18.414;2023-09-08T04:35:33;99625.59;;;20.01;100.00
68193;BME280;55012;47.562;18.414;2023-09-08T04:37:59;99627.97;;;20.03;100.00
68193;BME280;55012;47.562;18.414;2023-09-08T04:40:24;99627.16;;;20.02;100.00
68193;BME280;55012;47.562;18.414;2023-09-08T04:42:49;99636.97;;;20.07;100.00
68193;BME280;55012;47.562;18.414;2023-09-08T04:45:15;99632.97;;;20.18;100.00
68193;BME280;55012;47.562;18.414;2023-09-08T04:47:40;99630.22;;;20.18;100.00
68193;BME280;55012;47.562;18.414;2023-09-08T04:50:06;99636.91;;;20.17;100.00
68193;BME280;55012;47.562;18.414;2023-09-08T04:52:31;99641.66;;;20.13;100.00
68193;BME280;55012;47.562;18.414;2023-09-08T04:54:57;99633.41;;;20.10;100.00
68193;BME280;55012;47.562;18.414;2023-09-08T04:57:22;99636.94;;;20.10;100.00
68193;BME280;55012;47.562;18.414;2023-09-08T04:59:48;99631.06;;;20.08;100.00
68193;BME280;55012;47.562;18.414;2023-09-08T05:02:13;99629.91;;;20.06;100.00
68193;BME280;55012;47.562;18.414;2023-09-08T05:04:40;99628.31;;;20.08;100.00
68193;BME280;55012;47.562;18.414;2023-09-08T05:07:05;99616.94;;;20.10;100.00
68193;BME280;55012;47.562;18.414;2023-09-08T05:09:31;99631.03;;;20.19;100.00
68193;BME280;55012;47.562;18.414;2023-09-08T05:11:56;99638.88;;;20.20;100.00
68193;BME280;55012;47.562;18.414;2023-09-08T05:14:24;99641.22;;;20.22;100.00
68193;BME280;55012;47.562;18.414;2023-09-08T05:16:50;99643.94;;;20.26;100.00
68193;BME280;55012;47.562;18.414;2023-09-08T05:19:20;99635.31;;;20.24;100.00
68193;BME280;55012;47.562;18.414;2023-09-08T05:21:46;99644.28;;;20.35;100.00
68193;BME280;55012;47.562;18.414;2023-09-08T05:24:12;99649.00;;;20.38;100.00
68193;BME280;55012;47.562;18.414;2023-09-08T05:26:38;99651.34;;;20.36;100.00
68193;BME280;55012;47.562;18.414;2023-09-08T05:29:06;99654.09;;;20.36;100.00
68193;BME280;55012;47.562;18.414;2023-09-08T05:31:32;99652.09;;;20.43;100.00
68193;BME280;55012;47.562;18.414;2023-09-08T05:33:57;99654.44;;;20.52;100.00
68193;BME280;55012;47.562;18.414;2023-09-08T05:36:23;99661.09;;;20.55;100.00
68193;BME280;55012;47.562;18.414;2023-09-08T05:38:48;99658.75;;;20.53;100.00
68193;BME280;55012;47.562;18.414;2023-09-08T05:41:14;99661.09;;;20.55;100.00
68193;BME280;55012;47.562;18.414;2023-09-08T05:43:39;99661.47;;;20.57;100.00
68193;BME280;55012;47.562;18.414;2023-09-08T05:46:04;99670.50;;;20.61;100.00
68193;BME280;55012;47.562;18.414;2023-09-08T05:48:31;99659.50;;;20.61;100.00
68193;BME280;55012;47.562;18.414;2023-09-08T05:50:56;99663.41;;;20.63;100.00
68193;BME280;55012;47.562;18.414;2023-09-08T05:53:22;99661.00;;;20.69;100.00
68193;BME280;55012;47.562;18.414;2023-09-08T05:55:47;99664.88;;;20.79;100.00
68193;BME280;55012;47.562;18.414;2023-09-08T05:58:13;99660.91;;;20.83;100.00
68193;BME280;55012;47.562;18.414;2023-09-08T06:00:38;99668.34;;;20.86;100.00
68193;BME280;55012;47.562;18.414;2023-09-08T06:03:04;99660.13;;;20.83;100.00
68193;BME280;55012;47.562;18.414;2023-09-08T06:05:30;99668.41;;;20.75;100.00
68193;BME280;55012;47.562;18.414;2023-09-08T06:07:55;99660.56;;;20.78;100.00
68193;BME280;55012;47.562;18.414;2023-09-08T06:10:21;99660.50;;;20.85;100.00
68193;BME280;55012;47.562;18.414;2023-09-08T06:12:46;99661.25;;;20.89;100.00
68193;BME280;55012;47.562;18.414;2023-09-08T06:15:16;99656.91;;;20.95;100.00
68193;BME280;55012;47.562;18.414;2023-09-08T06:17:41;99660.81;;;20.97;100.00
68193;BME280;55012;47.562;18.414;2023-09-08T06:20:07;99652.97;;;20.96;100.00
68193;BME280;55012;47.562;18.414;2023-09-08T06:22:32;99652.19;;;20.92;100.00
68193;BME280;55012;47.562;18.414;2023-09-08T06:24:59;99651.81;;;20.90;100.00
68193;BME280;55012;47.562;18.414;2023-09-08T06:27:24;99652.97;;;20.92;100.00
68193;BME280;55012;47.562;18.414;2023-09-08T06:29:50;99646.28;;;20.93;100.00
68193;BME280;55012;47.562;18.414;2023-09-08T06:32:16;99637.59;;;21.02;100.00
68193;BME280;55012;47.562;18.414;2023-09-08T06:34:41;99640.69;;;21.08;100.00
68193;BME280;55012;47.562;18.414;2023-09-08T06:37:08;99643.31;;;21.18;100.00
68193;BME280;55012;47.562;18.414;2023-09-08T06:39:33;99638.59;;;21.22;100.00
68193;BME280;55012;47.562;18.414;2023-09-08T06:41:59;99640.16;;;21.23;100.00
68193;BME280;55012;47.562;18.414;2023-09-08T06:44:24;99637.75;;;21.25;100.00
68193;BME280;55012;47.562;18.414;2023-09-08T06:46:50;99636.22;;;21.28;100.00
68193;BME280;55012;47.562;18.414;2023-09-08T06:49:15;99640.13;;;21.30;100.00
68193;BME280;55012;47.562;18.414;2023-09-08T06:51:40;99636.09;;;21.39;100.00
68193;BME280;55012;47.562;18.414;2023-09-08T06:54:06;99644.72;;;21.41;100.00
68193;BME280;55012;47.562;18.414;2023-09-08T06:56:31;99642.41;;;21.39;100.00
68193;BME280;55012;47.562;18.414;2023-09-08T06:58:57;99645.94;;;21.40;100.00
68193;BME280;55012;47.562;18.414;2023-09-08T07:01:25;99644.41;;;21.35;100.00
68193;BME280;55012;47.562;18.414;2023-09-08T07:03:51;99638.88;;;21.39;100.00
68193;BME280;55012;47.562;18.414;2023-09-08T07:06:16;99644.78;;;21.34;100.00
68193;BME280;55012;47.562;18.414;2023-09-08T07:08:42;99640.13;;;21.30;100.00
68193;BME280;55012;47.562;18.414;2023-09-08T07:11:07;99645.16;;;21.39;100.00
68193;BME280;55012;47.562;18.414;2023-09-08T07:13:34;99641.56;;;21.46;100.00
68193;BME280;55012;47.562;18.414;2023-09-08T07:15:59;99641.09;;;21.51;100.00
68193;BME280;55012;47.562;18.414;2023-09-08T07:18:25;99637.13;;;21.55;100.00
68193;BME280;55012;47.562;18.414;2023-09-08T07:20:50;99635.91;;;21.60;100.00
68193;BME280;55012;47.562;18.414;2023-09-08T07:23:16;99636.63;;;21.64;100.00
68193;BME280;55012;47.562;18.414;2023-09-08T07:25:49;99631.50;;;21.66;100.00
68193;BME280;55012;47.562;18.414;2023-09-08T07:28:16;99634.25;;;21.66;100.00
68193;BME280;55012;47.562;18.414;2023-09-08T07:30:42;99634.25;;;21.66;100.00
68193;BME280;55012;47.562;18.414;2023-09-08T07:33:08;99625.28;;;21.58;100.00
68193;BME280;55012;47.562;18.414;2023-09-08T07:35:37;99622.53;;;21.58;100.00
68193;BME280;55012;47.562;18.414;2023-09-08T07:38:02;99608.25;;;21.71;100.00
68193;BME280;55012;47.562;18.414;2023-09-08T07:40:28;99615.25;;;21.75;100.00
68193;BME280;55012;47.562;18.414;2023-09-08T07:42:53;99616.78;;;21.80;100.00
68193;BME280;55012;47.562;18.414;2023-09-08T07:45:18;99621.44;;;21.86;100.00
68193;BME280;55012;47.562;18.414;2023-09-08T07:47:44;99626.13;;;21.90;100.00
68193;BME280;55012;47.562;18.414;2023-09-08T07:50:28;99622.16;;;21.91;100.00
68193;BME280;55012;47.562;18.414;2023-09-08T07:52:55;99634.31;;;21.97;100.00
68193;BME280;55012;47.562;18.414;2023-09-08T07:55:22;99628.44;;;21.91;100.00
68193;BME280;55012;47.562;18.414;2023-09-08T07:57:48;99635.53;;;21.92;100.00
68193;BME280;55012;47.562;18.414;2023-09-08T08:00:15;99630.00;;;21.96;100.00
68193;BME280;55012;47.562;18.414;2023-09-08T08:02:46;99627.22;;;21.96;100.00
68193;BME280;55012;47.562;18.414;2023-09-08T08:05:12;99633.53;;;21.93;100.00
68193;BME280;55012;47.562;18.414;2023-09-08T08:07:41;99644.56;;;21.93;100.00
68193;BME280;55012;47.562;18.414;2023-09-08T08:10:07;99633.97;;;21.91;100.00
68193;BME280;55012;47.562;18.414;2023-09-08T08:12:33;99637.13;;;21.90;100.00
68193;BME280;55012;47.562;18.414;2023-09-08T08:15:00;99649.72;;;21.91;100.00
68193;BME280;55012;47.562;18.414;2023-09-08T08:17:25;99649.63;;;21.98;100.00
68193;BME280;55012;47.562;18.414;2023-09-08T08:19:55;99655.84;;;22.05;100.00
68193;BME280;55012;47.562;18.414;2023-09-08T08:22:21;99660.53;;;22.08;100.00
68193;BME280;55012;47.562;18.414;2023-09-08T08:24:46;99667.22;;;22.11;100.00
68193;BME280;55012;47.562;18.414;2023-09-08T08:27:12;99663.69;;;22.10;100.00
68193;BME280;55012;47.562;18.414;2023-09-08T08:29:38;99662.50;;;22.11;100.00
68193;BME280;55012;47.562;18.414;2023-09-08T08:32:04;99659.31;;;22.13;100.00
68193;BME280;55012;47.562;18.414;2023-09-08T08:34:30;99667.59;;;22.13;100.00
68193;BME280;55012;47.562;18.414;2023-09-08T08:36:55;99659.66;;;22.19;100.00
68193;BME280;55012;47.562;18.414;2023-09-08T08:39:21;99661.56;;;22.22;100.00
68193;BME280;55012;47.562;18.414;2023-09-08T08:41:46;99660.03;;;22.21;100.00
68193;BME280;55012;47.562;18.414;2023-09-08T08:44:12;99661.94;;;22.24;100.00
68193;BME280;55012;47.562;18.414;2023-09-08T08:46:39;99661.16;;;22.23;100.00
68193;BME280;55012;47.562;18.414;2023-09-08T08:49:05;99659.19;;;22.24;100.00
68193;BME280;55012;47.562;18.414;2023-09-08T08:51:32;99664.25;;;22.29;100.00
68193;BME280;55012;47.562;18.414;2023-09-08T08:53:57;99669.34;;;22.30;100.00
68193;BME280;55012;47.562;18.414;2023-09-08T08:56:23;99670.47;;;22.33;100.00
68193;BME280;55012;47.562;18.414;2023-09-08T08:58:49;99670.47;;;22.33;100.00
68193;BME280;55012;47.562;18.414;2023-09-08T09:01:18;99667.72;;;22.33;100.00
68193;BME280;55012;47.562;18.414;2023-09-08T09:03:49;99664.94;;;22.36;100.00
68193;BME280;55012;47.562;18.414;2023-09-08T09:06:15;99672.72;;;22.41;100.00
68193;BME280;55012;47.562;18.414;2023-09-08T09:08:44;99681.38;;;22.43;100.00
68193;BME280;55012;47.562;18.414;2023-09-08T09:11:11;99693.19;;;22.44;100.00
68193;BME280;55012;47.562;18.414;2023-09-08T09:13:37;99696.25;;;22.50;100.00
68193;BME280;55012;47.562;18.414;2023-09-08T09:16:03;99692.25;;;22.54;100.00
68193;BME280;55012;47.562;18.414;2023-09-08T09:18:29;99692.97;;;22.58;100.00
68193;BME280;55012;47.562;18.414;2023-09-08T09:20:58;99703.97;;;22.62;100.00
68193;BME280;55012;47.562;18.414;2023-09-08T09:23:41;99727.16;;;22.68;100.00
68193;BME280;55012;47.562;18.414;2023-09-08T09:26:07;99712.56;;;22.67;100.00
68193;BME280;55012;47.562;18.414;2023-09-08T09:28:32;99701.16;;;22.65;100.00
68193;BME280;55012;47.562;18.414;2023-09-08T09:30:58;99713.34;;;22.68;100.00
68193;BME280;55012;47.562;18.414;2023-09-08T09:33:24;99710.97;;;22.70;100.00
68193;BME280;55012;47.562;18.414;2023-09-08T09:35:53;99727.88;;;22.72;100.00
68193;BME280;55012;47.562;18.414;2023-09-08T09:38:20;99767.22;;;22.76;100.00
68193;BME280;55012;47.562;18.414;2023-09-08T09:40:46;99765.97;;;22.81;100.00
68193;BME280;55012;47.562;18.414;2023-09-08T09:43:13;99764.78;;;22.82;100.00
68193;BME280;55012;47.562;18.414;2023-09-08T09:45:40;99760.44;;;22.81;100.00
68193;BME280;55012;47.562;18.414;2023-09-08T09:48:07;99766.75;;;22.85;100.00
68193;BME280;55012;47.562;18.414;2023-09-08T09:50:34;99762.00;;;22.85;100.00
68193;BME280;55012;47.562;18.414;2023-09-08T09:53:03;99773.41;;;22.84;100.00
68193;BME280;55012;47.562;18.414;2023-09-08T09:55:28;99782.88;;;22.86;100.00
68193;BME280;55012;47.562;18.414;2023-09-08T09:57:56;99850.19;;;22.92;100.00
68193;BME280;55012;47.562;18.414;2023-09-08T10:00:25;99857.91;;;23.05;100.00
68193;BME280;55012;47.562;18.414;2023-09-08T10:02:53;99847.25;;;23.07;100.00
68193;BME280;55012;47.562;18.414;2023-09-08T10:05:18;99824.16;;;22.93;100.00
68193;BME280;55012;47.562;18.414;2023-09-08T10:07:47;99831.69;;;22.89;100.00
68193;BME280;55012;47.562;18.414;2023-09-08T10:10:14;99847.47;;;22.89;100.00
68193;BME280;55012;47.562;18.414;2023-09-08T10:12:44;99865.16;;;22.91;100.00
68193;BME280;55012;47.562;18.414;2023-09-08T10:15:11;99869.03;;;22.97;100.00
68193;BME280;55012;47.562;18.414;2023-09-08T10:17:37;99869.41;;;22.99;100.00
68193;BME280;55012;47.562;18.414;2023-09-08T10:20:05;99868.19;;;23.04;100.00
68193;BME280;55012;47.562;18.414;2023-09-08T10:22:43;99856.69;;;23.09;100.00
68193;BME280;55012;47.562;18.414;2023-09-08T10:25:12;99858.59;;;23.12;100.00
68193;BME280;55012;47.562;18.414;2023-09-08T10:27:40;99846.00;;;23.11;100.00
68193;BME280;55012;47.562;18.414;2023-09-08T10:30:07;99843.53;;;23.17;100.00
68193;BME280;55012;47.562;18.414;2023-09-08T10:32:33;99832.16;;;23.15;100.00
68193;BME280;55012;47.562;18.414;2023-09-08T10:35:04;99830.56;;;23.17;100.00
68193;BME280;55012;47.562;18.414;2023-09-08T10:37:31;99827.41;;;23.15;100.00
68193;BME280;55012;47.562;18.414;2023-09-08T10:40:23;99834.22;;;23.07;100.00
68193;BME280;55012;47.562;18.414;2023-09-08T10:42:49;99848.84;;;23.04;100.00
68193;BME280;55012;47.562;18.414;2023-09-08T10:45:30;99876.38;;;23.11;100.00
68193;BME280;55012;47.562;18.414;2023-09-08T10:47:56;99866.81;;;23.16;100.00
68193;BME280;55012;47.562;18.414;2023-09-08T10:50:30;99872.63;;;23.25;100.00
68193;BME280;55012;47.562;18.414;2023-09-08T10:53:18;99869.84;;;23.25;100.00
68193;BME280;55012;47.562;18.414;2023-09-08T10:55:48;99859.66;;;23.22;100.00
68193;BME280;55012;47.562;18.414;2023-09-08T10:58:32;99857.31;;;23.20;100.00
68193;BME280;55012;47.562;18.414;2023-09-08T11:01:00;99846.31;;;23.17;100.00
68193;BME280;55012;47.562;18.414;2023-09-08T11:03:30;99843.94;;;23.19;100.00
68193;BME280;55012;47.562;18.414;2023-09-08T11:06:11;99854.91;;;23.22;100.00
68193;BME280;55012;47.562;18.414;2023-09-08T11:08:46;99850.91;;;23.27;100.00
68193;BME280;55012;47.562;18.414;2023-09-08T11:11:13;99846.97;;;23.28;100.00
68193;BME280;55012;47.562;18.414;2023-09-08T11:13:39;99859.38;;;23.43;100.00
68193;BME280;55012;47.562;18.414;2023-09-08T11:16:11;99860.09;;;23.47;100.00
68193;BME280;55012;47.562;18.414;2023-09-08T11:18:36;99846.38;;;23.40;100.00
68193;BME280;55012;47.562;18.414;2023-09-08T11:21:03;99839.19;;;23.46;100.00
68193;BME280;55012;47.562;18.414;2023-09-08T11:23:29;99846.94;;;23.55;100.00
68193;BME280;55012;47.562;18.414;2023-09-08T11:25:54;99842.31;;;23.48;100.00
68193;BME280;55012;47.562;18.414;2023-09-08T11:28:24;99842.13;;;23.63;100.00
68193;BME280;55012;47.562;18.414;2023-09-08T11:30:50;99837.03;;;23.61;100.00
68193;BME280;55012;47.562;18.414;2023-09-08T11:33:20;99838.59;;;23.62;100.00
68193;BME280;55012;47.562;18.414;2023-09-08T11:35:53;99841.16;;;23.73;100.00
68193;BME280;55012;47.562;18.414;2023-09-08T11:38:26;99829.66;;;23.78;100.00
68193;BME280;55012;47.562;18.414;2023-09-08T11:40:53;99829.00;;;23.94;100.00
68193;BME280;55012;47.562;18.414;2023-09-08T11:43:21;99833.56;;;24.04;100.00
68193;BME280;55012;47.562;18.414;2023-09-08T11:45:47;99823.22;;;24.08;100.00
68193;BME280;55012;47.562;18.414;2023-09-08T11:48:14;99823.81;;;24.19;100.00
68193;BME280;55012;47.562;18.414;2023-09-08T11:50:41;99826.50;;;24.23;100.00
68193;BME280;55012;47.562;18.414;2023-09-08T11:53:07;99850.56;;;24.26;100.00
68193;BME280;55012;47.562;18.414;2023-09-08T11:55:34;99836.72;;;24.26;100.00
68193;BME280;55012;47.562;18.414;2023-09-08T11:58:02;99833.22;;;24.22;100.00
68193;BME280;55012;47.562;18.414;2023-09-08T12:00:28;99815.75;;;24.28;100.00
68193;BME280;55012;47.562;18.414;2023-09-08T12:02:55;99819.59;;;24.34;100.00
68193;BME280;55012;47.562;18.414;2023-09-08T12:05:25;99852.59;;;24.45;100.00
68193;BME280;55012;47.562;18.414;2023-09-08T12:07:52;99854.34;;;24.55;100.00
68193;BME280;55012;47.562;18.414;2023-09-08T12:10:18;99876.50;;;24.75;100.00
68193;BME280;55012;47.562;18.414;2023-09-08T12:12:45;99881.34;;;24.91;100.00
68193;BME280;55012;47.562;18.414;2023-09-08T12:15:11;99877.28;;;24.76;100.00
68193;BME280;55012;47.562;18.414;2023-09-08T12:17:49;99840.88;;;24.57;100.00
68193;BME280;55012;47.562;18.414;2023-09-08T12:20:15;99853.16;;;24.76;100.00
68193;BME280;55012;47.562;18.414;2023-09-08T12:22:49;99874.31;;;25.06;100.00
68193;BME280;55012;47.562;18.414;2023-09-08T12:25:15;99878.38;;;25.38;100.00
68193;BME280;55012;47.562;18.414;2023-09-08T12:27:41;99877.03;;;25.62;100.00
68193;BME280;55012;47.562;18.414;2023-09-08T12:30:08;99875.19;;;25.56;100.00
68193;BME280;55012;47.562;18.414;2023-09-08T12:32:35;99856.66;;;25.36;100.00
68193;BME280;55012;47.562;18.414;2023-09-08T12:35:03;99865.16;;;25.45;100.00
68193;BME280;55012;47.562;18.414;2023-09-08T12:37:29;99856.25;;;25.70;100.00
68193;BME280;55012;47.562;18.414;2023-09-08T12:39:56;99852.56;;;25.77;100.00
68193;BME280;55012;47.562;18.414;2023-09-08T12:42:22;99850.41;;;25.85;100.00